sensor_id;sensor_type;location;lat;lon;timestamp;temperature;humidity
67881;SHT31;54680;52.486;-1.890;2023-01-23T00:01:51;17.05;34.53
67881;SHT31;54680;52.486;-1.890;2023-01-23T00:04:16;17.11;34.54
67881;SHT31;54680;52.486;-1.890;2023-01-23T00:06:42;17.12;34.49
67881;SHT31;54680;52.486;-1.890;2023-01-23T00:09:07;17.19;34.47
67881;SHT31;54680;52.486;-1.890;2023-01-23T00:11:33;17.19;34.43
67881;SHT31;54680;52.486;-1.890;2023-01-23T00:13:59;17.24;34.37
67881;SHT31;54680;52.486;-1.890;2023-01-23T00:16:26;17.31;34.28
67881;SHT31;54680;52.486;-1.890;2023-01-23T00:18:51;17.31;34.27
67881;SHT31;54680;52.486;-1.890;2023-01-23T00:21:18;17.34;34.25
67881;SHT31;54680;52.486;-1.890;2023-01-23T00:23:46;17.36;34.21
67881;SHT31;54680;52.486;-1.890;2023-01-23T00:26:12;17.39;34.18
67881;SHT31;54680;52.486;-1.890;2023-01-23T00:28:40;17.43;34.17
67881;SHT31;54680;52.486;-1.890;2023-01-23T00:31:06;17.46;34.11
67881;SHT31;54680;52.486;-1.890;2023-01-23T00:33:32;17.43;34.10
67881;SHT31;54680;52.486;-1.890;2023-01-23T00:35:57;17.48;34.10
67881;SHT31;54680;52.486;-1.890;2023-01-23T00:38:23;17.50;34.03
67881;SHT31;54680;52.486;-1.890;2023-01-23T00:40:48;17.50;34.03
67881;SHT31;54680;52.486;-1.890;2023-01-23T00:43:14;17.52;34.07
67881;SHT31;54680;52.486;-1.890;2023-01-23T00:45:40;17.52;34.05
67881;SHT31;54680;52.486;-1.890;2023-01-23T00:48:05;17.58;33.95
67881;SHT31;54680;52.486;-1.890;2023-01-23T00:50:30;17.61;33.98
67881;SHT31;54680;52.486;-1.890;2023-01-23T00:52:56;17.65;33.94
67881;SHT31;54680;52.486;-1.890;2023-01-23T00:55:21;17.65;33.97
67881;SHT31;54680;52.486;-1.890;2023-01-23T00:57:46;17.69;33.88
67881;SHT31;54680;52.486;-1.890;2023-01-23T01:00:12;17.69;33.85
67881;SHT31;54680;52.486;-1.890;2023-01-23T01:02:37;17.72;33.85
67881;SHT31;54680;52.486;-1.890;2023-01-23T01:05:02;17.69;33.88
67881;SHT31;54680;52.486;-1.890;2023-01-23T01:07:28;17.72;33.87
67881;SHT31;54680;52.486;-1.890;2023-01-23T01:09:53;17.76;33.81
67881;SHT31;54680;52.486;-1.890;2023-01-23T01:12:18;17.82;33.79
67881;SHT31;54680;52.486;-1.890;2023-01-23T01:14:44;17.80;33.77
67881;SHT31;54680;52.486;-1.890;2023-01-23T01:17:09;17.83;33.82
67881;SHT31;54680;52.486;-1.890;2023-01-23T01:19:34;17.83;33.80
67881;SHT31;54680;52.486;-1.890;2023-01-23T01:22:00;17.83;33.75
67881;SHT31;54680;52.486;-1.890;2023-01-23T01:24:25;17.90;33.70
67881;SHT31;54680;52.486;-1.890;2023-01-23T01:26:51;17.91;33.72
67881;SHT31;54680;52.486;-1.890;2023-01-23T01:29:16;17.96;33.74
67881;SHT31;54680;52.486;-1.890;2023-01-23T01:31:41;17.94;33.70
67881;SHT31;54680;52.486;-1.890;2023-01-23T01:34:06;17.94;33.72
67881;SHT31;54680;52.486;-1.890;2023-01-23T01:36:32;17.99;33.68
67881;SHT31;54680;52.486;-1.890;2023-01-23T01:38:57;17.99;33.68
67881;SHT31;54680;52.486;-1.890;2023-01-23T01:41:22;17.97;33.64
67881;SHT31;54680;52.486;-1.890;2023-01-23T01:43:48;17.97;33.71
67881;SHT31;54680;52.486;-1.890;2023-01-23T01:46:17;17.99;33.67
67881;SHT31;54680;52.486;-1.890;2023-01-23T01:48:45;18.01;33.62
67881;SHT31;54680;52.486;-1.890;2023-01-23T01:51:14;18.04;33.63
67881;SHT31;54680;52.486;-1.890;2023-01-23T01:53:41;18.00;33.68
67881;SHT31;54680;52.486;-1.890;2023-01-23T01:56:08;18.04;33.67
67881;SHT31;54680;52.486;-1.890;2023-01-23T01:58:34;18.07;33.62
67881;SHT31;54680;52.486;-1.890;2023-01-23T02:01:00;18.01;33.65
67881;SHT31;54680;52.486;-1.890;2023-01-23T02:03:26;18.09;33.58
67881;SHT31;54680;52.486;-1.890;2023-01-23T02:05:51;18.06;33.64
67881;SHT31;54680;52.486;-1.890;2023-01-23T02:08:26;18.09;33.61
67881;SHT31;54680;52.486;-1.890;2023-01-23T02:10:54;18.10;33.61
67881;SHT31;54680;52.486;-1.890;2023-01-23T02:13:21;18.14;33.60
67881;SHT31;54680;52.486;-1.890;2023-01-23T02:15:47;18.13;33.56
67881;SHT31;54680;52.486;-1.890;2023-01-23T02:18:13;18.13;33.59
67881;SHT31;54680;52.486;-1.890;2023-01-23T02:20:38;18.14;33.63
67881;SHT31;54680;52.486;-1.890;2023-01-23T02:25:53;18.18;33.55
67881;SHT31;54680;52.486;-1.890;2023-01-23T02:28:20;18.21;33.52
67881;SHT31;54680;52.486;-1.890;2023-01-23T02:30:46;18.18;33.55
67881;SHT31;54680;52.486;-1.890;2023-01-23T02:35:57;18.21;33.55
67881;SHT31;54680;52.486;-1.890;2023-01-23T02:38:25;18.21;33.55
67881;SHT31;54680;52.486;-1.890;2023-01-23T02:40:50;18.20;33.57
67881;SHT31;54680;52.486;-1.890;2023-01-23T02:43:18;18.21;33.50
67881;SHT31;54680;52.486;-1.890;2023-01-23T02:45:45;18.23;33.54
67881;SHT31;54680;52.486;-1.890;2023-01-23T02:48:10;18.23;33.49
67881;SHT31;54680;52.486;-1.890;2023-01-23T02:50:36;18.26;33.48
67881;SHT31;54680;52.486;-1.890;2023-01-23T02:53:01;18.23;33.49
67881;SHT31;54680;52.486;-1.890;2023-01-23T02:55:27;18.21;33.54
67881;SHT31;54680;52.486;-1.890;2023-01-23T02:57:57;18.23;33.47
67881;SHT31;54680;52.486;-1.890;2023-01-23T03:00:42;18.24;33.48
67881;SHT31;54680;52.486;-1.890;2023-01-23T03:03:07;18.24;33.48
67881;SHT31;54680;52.486;-1.890;2023-01-23T03:05:33;18.24;33.48
67881;SHT31;54680;52.486;-1.890;2023-01-23T03:07:58;18.26;33.48
67881;SHT31;54680;52.486;-1.890;2023-01-23T03:10:24;18.27;33.43
67881;SHT31;54680;52.486;-1.890;2023-01-23T03:12:49;18.24;33.50
67881;SHT31;54680;52.486;-1.890;2023-01-23T03:15:14;18.27;33.46
67881;SHT31;54680;52.486;-1.890;2023-01-23T03:17:39;18.27;33.49
67881;SHT31;54680;52.486;-1.890;2023-01-23T03:20:05;18.27;33.46
67881;SHT31;54680;52.486;-1.890;2023-01-23T03:22:31;18.24;33.50
67881;SHT31;54680;52.486;-1.890;2023-01-23T03:24:57;18.24;33.56
67881;SHT31;54680;52.486;-1.890;2023-01-23T03:27:22;18.27;33.48
67881;SHT31;54680;52.486;-1.890;2023-01-23T03:29:48;18.24;33.49
67881;SHT31;54680;52.486;-1.890;2023-01-23T03:32:27;18.26;33.49
67881;SHT31;54680;52.486;-1.890;2023-01-23T03:34:53;18.31;33.43
67881;SHT31;54680;52.486;-1.890;2023-01-23T03:37:18;18.30;33.46
67881;SHT31;54680;52.486;-1.890;2023-01-23T03:39:44;18.28;33.36
67881;SHT31;54680;52.486;-1.890;2023-01-23T03:42:27;18.27;33.43
67881;SHT31;54680;52.486;-1.890;2023-01-23T03:44:52;18.30;33.41
67881;SHT31;54680;52.486;-1.890;2023-01-23T03:47:18;18.28;33.41
67881;SHT31;54680;52.486;-1.890;2023-01-23T03:49:44;18.31;33.41
67881;SHT31;54680;52.486;-1.890;2023-01-23T03:52:10;18.28;33.42
67881;SHT31;54680;52.486;-1.890;2023-01-23T03:54:35;18.28;33.38
67881;SHT31;54680;52.486;-1.890;2023-01-23T03:57:01;18.31;33.36
67881;SHT31;54680;52.486;-1.890;2023-01-23T03:59:26;18.28;33.38
67881;SHT31;54680;52.486;-1.890;2023-01-23T04:01:51;18.30;33.39
67881;SHT31;54680;52.486;-1.890;2023-01-23T04:04:16;18.30;33.43
67881;SHT31;54680;52.486;-1.890;2023-01-23T04:06:42;18.27;33.39
67881;SHT31;54680;52.486;-1.890;2023-01-23T04:09:07;18.28;33.41
67881;SHT31;54680;52.486;-1.890;2023-01-23T04:11:32;18.26;33.31
67881;SHT31;54680;52.486;-1.890;2023-01-23T04:13:58;18.33;33.34
67881;SHT31;54680;52.486;-1.890;2023-01-23T04:16:23;18.33;33.29
67881;SHT31;54680;52.486;-1.890;2023-01-23T04:18:49;18.28;33.30
67881;SHT31;54680;52.486;-1.890;2023-01-23T04:21:14;18.34;33.34
67881;SHT31;54680;52.486;-1.890;2023-01-23T04:23:40;18.31;33.35
67881;SHT31;54680;52.486;-1.890;2023-01-23T04:26:05;18.34;33.30
67881;SHT31;54680;52.486;-1.890;2023-01-23T04:28:30;18.31;33.26
67881;SHT31;54680;52.486;-1.890;2023-01-23T04:30:56;18.31;33.22
67881;SHT31;54680;52.486;-1.890;2023-01-23T04:33:21;18.37;33.26
67881;SHT31;54680;52.486;-1.890;2023-01-23T04:35:48;18.33;33.25
67881;SHT31;54680;52.486;-1.890;2023-01-23T04:38:14;18.34;33.26
67881;SHT31;54680;52.486;-1.890;2023-01-23T04:40:39;18.34;33.18
67881;SHT31;54680;52.486;-1.890;2023-01-23T04:43:05;18.34;33.17
67881;SHT31;54680;52.486;-1.890;2023-01-23T04:45:30;18.36;33.19
67881;SHT31;54680;52.486;-1.890;2023-01-23T04:47:55;18.37;33.14
67881;SHT31;54680;52.486;-1.890;2023-01-23T04:50:20;18.36;33.13
67881;SHT31;54680;52.486;-1.890;2023-01-23T04:52:46;18.36;33.15
67881;SHT31;54680;52.486;-1.890;2023-01-23T04:55:11;18.33;33.15
67881;SHT31;54680;52.486;-1.890;2023-01-23T04:57:36;18.36;33.12
67881;SHT31;54680;52.486;-1.890;2023-01-23T05:00:02;18.37;33.15
67881;SHT31;54680;52.486;-1.890;2023-01-23T05:02:27;18.36;33.11
67881;SHT31;54680;52.486;-1.890;2023-01-23T05:04:53;18.33;33.13
67881;SHT31;54680;52.486;-1.890;2023-01-23T05:07:18;18.36;33.11
67881;SHT31;54680;52.486;-1.890;2023-01-23T05:09:43;18.37;33.07
67881;SHT31;54680;52.486;-1.890;2023-01-23T05:12:09;18.34;33.10
67881;SHT31;54680;52.486;-1.890;2023-01-23T05:14:34;18.36;33.10
67881;SHT31;54680;52.486;-1.890;2023-01-23T05:16:59;18.38;33.06
67881;SHT31;54680;52.486;-1.890;2023-01-23T05:19:24;18.40;33.04
67881;SHT31;54680;52.486;-1.890;2023-01-23T05:21:50;18.41;33.00
67881;SHT31;54680;52.486;-1.890;2023-01-23T05:24:15;18.33;33.03
67881;SHT31;54680;52.486;-1.890;2023-01-23T05:26:40;18.41;33.05
67881;SHT31;54680;52.486;-1.890;2023-01-23T05:29:07;18.31;33.11
67881;SHT31;54680;52.486;-1.890;2023-01-23T05:31:32;18.38;33.01
67881;SHT31;54680;52.486;-1.890;2023-01-23T05:33:57;18.38;33.04
67881;SHT31;54680;52.486;-1.890;2023-01-23T05:36:23;18.36;33.03
67881;SHT31;54680;52.486;-1.890;2023-01-23T05:38:48;18.38;33.06
67881;SHT31;54680;52.486;-1.890;2023-01-23T05:41:13;18.38;32.98
67881;SHT31;54680;52.486;-1.890;2023-01-23T05:43:38;18.40;32.98
67881;SHT31;54680;52.486;-1.890;2023-01-23T05:46:04;18.38;33.02
67881;SHT31;54680;52.486;-1.890;2023-01-23T05:48:29;18.38;32.96
67881;SHT31;54680;52.486;-1.890;2023-01-23T05:50:54;18.40;32.97
67881;SHT31;54680;52.486;-1.890;2023-01-23T05:53:20;18.43;32.95
67881;SHT31;54680;52.486;-1.890;2023-01-23T05:55:45;18.41;32.92
67881;SHT31;54680;52.486;-1.890;2023-01-23T05:58:10;18.41;32.94
67881;SHT31;54680;52.486;-1.890;2023-01-23T06:00:36;18.44;32.91
67881;SHT31;54680;52.486;-1.890;2023-01-23T06:03:01;18.38;32.94
67881;SHT31;54680;52.486;-1.890;2023-01-23T06:05:26;18.41;32.92
67881;SHT31;54680;52.486;-1.890;2023-01-23T06:07:51;18.41;32.93
67881;SHT31;54680;52.486;-1.890;2023-01-23T06:10:17;18.45;32.85
67881;SHT31;54680;52.486;-1.890;2023-01-23T06:12:42;18.47;32.84
67881;SHT31;54680;52.486;-1.890;2023-01-23T06:15:08;18.45;32.83
67881;SHT31;54680;52.486;-1.890;2023-01-23T06:17:33;18.44;32.85
67881;SHT31;54680;52.486;-1.890;2023-01-23T06:19:58;18.44;32.82
67881;SHT31;54680;52.486;-1.890;2023-01-23T06:22:24;18.45;32.84
67881;SHT31;54680;52.486;-1.890;2023-01-23T06:24:49;18.45;32.83
67881;SHT31;54680;52.486;-1.890;2023-01-23T06:27:16;18.47;32.83
67881;SHT31;54680;52.486;-1.890;2023-01-23T06:29:42;18.48;32.80
67881;SHT31;54680;52.486;-1.890;2023-01-23T06:32:07;18.50;32.79
67881;SHT31;54680;52.486;-1.890;2023-01-23T06:34:32;18.45;32.80
67881;SHT31;54680;52.486;-1.890;2023-01-23T06:36:57;18.50;32.71
67881;SHT31;54680;52.486;-1.890;2023-01-23T06:39:23;18.47;32.75
67881;SHT31;54680;52.486;-1.890;2023-01-23T06:41:48;18.51;32.72
67881;SHT31;54680;52.486;-1.890;2023-01-23T06:44:13;18.50;32.77
67881;SHT31;54680;52.486;-1.890;2023-01-23T06:46:39;18.43;32.75
67881;SHT31;54680;52.486;-1.890;2023-01-23T06:49:04;18.45;32.77
67881;SHT31;54680;52.486;-1.890;2023-01-23T06:51:29;18.50;32.73
67881;SHT31;54680;52.486;-1.890;2023-01-23T06:53:55;18.47;32.70
67881;SHT31;54680;52.486;-1.890;2023-01-23T06:56:20;18.50;32.74
67881;SHT31;54680;52.486;-1.890;2023-01-23T06:58:46;18.48;32.79
67881;SHT31;54680;52.486;-1.890;2023-01-23T07:01:13;18.51;32.73
67881;SHT31;54680;52.486;-1.890;2023-01-23T07:03:40;18.50;32.64
67881;SHT31;54680;52.486;-1.890;2023-01-23T07:06:06;18.51;32.72
67881;SHT31;54680;52.486;-1.890;2023-01-23T07:08:32;18.47;32.73
67881;SHT31;54680;52.486;-1.890;2023-01-23T07:10:58;18.52;32.66
67881;SHT31;54680;52.486;-1.890;2023-01-23T07:13:23;18.50;32.65
67881;SHT31;54680;52.486;-1.890;2023-01-23T07:15:48;18.51;32.64
67881;SHT31;54680;52.486;-1.890;2023-01-23T07:18:14;18.52;32.68
67881;SHT31;54680;52.486;-1.890;2023-01-23T07:20:39;18.51;32.70
67881;SHT31;54680;52.486;-1.890;2023-01-23T07:23:07;18.51;32.68
67881;SHT31;54680;52.486;-1.890;2023-01-23T07:25:33;18.52;32.68
67881;SHT31;54680;52.486;-1.890;2023-01-23T07:27:58;18.51;32.66
67881;SHT31;54680;52.486;-1.890;2023-01-23T07:30:23;18.51;32.68
67881;SHT31;54680;52.486;-1.890;2023-01-23T07:32:50;18.52;32.70
67881;SHT31;54680;52.486;-1.890;2023-01-23T07:35:15;18.52;32.68
67881;SHT31;54680;52.486;-1.890;2023-01-23T07:37:41;18.52;32.67
67881;SHT31;54680;52.486;-1.890;2023-01-23T07:40:06;18.51;32.69
67881;SHT31;54680;52.486;-1.890;2023-01-23T07:42:31;18.52;32.68
67881;SHT31;54680;52.486;-1.890;2023-01-23T07:44:57;18.50;32.72
67881;SHT31;54680;52.486;-1.890;2023-01-23T07:47:22;18.51;32.65
67881;SHT31;54680;52.486;-1.890;2023-01-23T07:49:47;18.55;32.67
67881;SHT31;54680;52.486;-1.890;2023-01-23T07:52:13;18.52;32.70
67881;SHT31;54680;52.486;-1.890;2023-01-23T07:54:38;18.50;32.69
67881;SHT31;54680;52.486;-1.890;2023-01-23T07:57:03;18.54;32.64
67881;SHT31;54680;52.486;-1.890;2023-01-23T07:59:28;18.55;32.63
67881;SHT31;54680;52.486;-1.890;2023-01-23T08:01:54;18.57;32.64
67881;SHT31;54680;52.486;-1.890;2023-01-23T08:04:19;18.54;32.63
67881;SHT31;54680;52.486;-1.890;2023-01-23T08:06:44;18.55;32.64
67881;SHT31;54680;52.486;-1.890;2023-01-23T08:09:10;18.57;32.59
67881;SHT31;54680;52.486;-1.890;2023-01-23T08:11:35;18.55;32.60
67881;SHT31;54680;52.486;-1.890;2023-01-23T08:14:00;18.58;32.64
67881;SHT31;54680;52.486;-1.890;2023-01-23T08:16:26;18.55;32.63
67881;SHT31;54680;52.486;-1.890;2023-01-23T08:18:52;18.60;32.59
67881;SHT31;54680;52.486;-1.890;2023-01-23T08:21:18;18.55;32.59
67881;SHT31;54680;52.486;-1.890;2023-01-23T08:23:43;18.61;32.56
67881;SHT31;54680;52.486;-1.890;2023-01-23T08:26:10;18.58;32.58
67881;SHT31;54680;52.486;-1.890;2023-01-23T08:28:35;18.61;32.55
67881;SHT31;54680;52.486;-1.890;2023-01-23T08:31:02;18.62;32.50
67881;SHT31;54680;52.486;-1.890;2023-01-23T08:33:27;18.60;32.54
67881;SHT31;54680;52.486;-1.890;2023-01-23T08:35:54;18.61;32.52
67881;SHT31;54680;52.486;-1.890;2023-01-23T08:38:20;18.60;32.47
67881;SHT31;54680;52.486;-1.890;2023-01-23T08:40:46;18.62;32.50
67881;SHT31;54680;52.486;-1.890;2023-01-23T08:43:12;18.60;32.47
67881;SHT31;54680;52.486;-1.890;2023-01-23T08:45:47;18.58;32.52
67881;SHT31;54680;52.486;-1.890;2023-01-23T08:48:13;18.60;32.52
67881;SHT31;54680;52.486;-1.890;2023-01-23T08:50:38;18.62;32.45
67881;SHT31;54680;52.486;-1.890;2023-01-23T08:53:03;18.62;32.42
67881;SHT31;54680;52.486;-1.890;2023-01-23T08:55:29;18.62;32.43
67881;SHT31;54680;52.486;-1.890;2023-01-23T08:57:54;18.62;32.47
67881;SHT31;54680;52.486;-1.890;2023-01-23T09:00:19;18.65;32.38
67881;SHT31;54680;52.486;-1.890;2023-01-23T09:02:45;18.69;32.32
67881;SHT31;54680;52.486;-1.890;2023-01-23T09:05:12;18.71;32.31
67881;SHT31;54680;52.486;-1.890;2023-01-23T09:07:38;18.69;32.33
67881;SHT31;54680;52.486;-1.890;2023-01-23T09:10:05;18.72;32.35
67881;SHT31;54680;52.486;-1.890;2023-01-23T09:12:31;18.73;32.26
67881;SHT31;54680;52.486;-1.890;2023-01-23T09:14:57;18.75;32.20
67881;SHT31;54680;52.486;-1.890;2023-01-23T09:17:23;18.75;32.22
67881;SHT31;54680;52.486;-1.890;2023-01-23T09:19:48;18.81;32.10
67881;SHT31;54680;52.486;-1.890;2023-01-23T09:22:14;18.78;32.16
67881;SHT31;54680;52.486;-1.890;2023-01-23T09:24:40;18.84;32.09
67881;SHT31;54680;52.486;-1.890;2023-01-23T09:27:05;18.87;32.04
67881;SHT31;54680;52.486;-1.890;2023-01-23T09:29:31;18.89;32.06
67881;SHT31;54680;52.486;-1.890;2023-01-23T09:31:57;18.85;32.01
67881;SHT31;54680;52.486;-1.890;2023-01-23T09:34:22;18.89;32.02
67881;SHT31;54680;52.486;-1.890;2023-01-23T09:36:48;18.87;32.00
67881;SHT31;54680;52.486;-1.890;2023-01-23T09:39:13;18.92;31.95
67881;SHT31;54680;52.486;-1.890;2023-01-23T09:41:38;18.96;31.85
67881;SHT31;54680;52.486;-1.890;2023-01-23T09:44:06;18.98;31.85
67881;SHT31;54680;52.486;-1.890;2023-01-23T09:46:36;19.02;31.90
67881;SHT31;54680;52.486;-1.890;2023-01-23T09:49:08;19.02;31.88
67881;SHT31;54680;52.486;-1.890;2023-01-23T09:54:26;19.12;31.85
67881;SHT31;54680;52.486;-1.890;2023-01-23T09:56:53;19.09;31.71
67881;SHT31;54680;52.486;-1.890;2023-01-23T09:59:34;19.12;31.62
67881;SHT31;54680;52.486;-1.890;2023-01-23T10:02:00;19.15;31.71
67881;SHT31;54680;52.486;-1.890;2023-01-23T10:04:25;19.13;31.71
67881;SHT31;54680;52.486;-1.890;2023-01-23T10:14:56;19.20;31.66
67881;SHT31;54680;52.486;-1.890;2023-01-23T10:20:13;19.20;31.50
67881;SHT31;54680;52.486;-1.890;2023-01-23T10:22:43;19.23;31.66
67881;SHT31;54680;52.486;-1.890;2023-01-23T10:25:15;19.22;31.59
67881;SHT31;54680;52.486;-1.890;2023-01-23T10:27:44;19.26;31.61
67881;SHT31;54680;52.486;-1.890;2023-01-23T10:30:17;19.29;31.57
67881;SHT31;54680;52.486;-1.890;2023-01-23T10:32:47;19.27;31.55
67881;SHT31;54680;52.486;-1.890;2023-01-23T10:35:15;19.30;31.52
67881;SHT31;54680;52.486;-1.890;2023-01-23T10:40:26;19.33;31.61
67881;SHT31;54680;52.486;-1.890;2023-01-23T10:43:14;19.40;31.55
67881;SHT31;54680;52.486;-1.890;2023-01-23T10:45:41;19.32;31.62
67881;SHT31;54680;52.486;-1.890;2023-01-23T10:50:50;19.36;31.57
67881;SHT31;54680;52.486;-1.890;2023-01-23T10:53:18;19.34;31.58
67881;SHT31;54680;52.486;-1.890;2023-01-23T10:55:43;19.39;31.50
67881;SHT31;54680;52.486;-1.890;2023-01-23T10:58:09;19.34;31.55
67881;SHT31;54680;52.486;-1.890;2023-01-23T11:00:46;19.42;31.43
67881;SHT31;54680;52.486;-1.890;2023-01-23T11:03:29;19.42;31.42
67881;SHT31;54680;52.486;-1.890;2023-01-23T11:06:15;19.43;31.48
67881;SHT31;54680;52.486;-1.890;2023-01-23T11:08:49;19.42;31.51
67881;SHT31;54680;52.486;-1.890;2023-01-23T11:11:18;19.40;31.63
67881;SHT31;54680;52.486;-1.890;2023-01-23T11:13:45;19.47;31.47
67881;SHT31;54680;52.486;-1.890;2023-01-23T11:16:13;19.52;31.44
67881;SHT31;54680;52.486;-1.890;2023-01-23T11:18:39;19.47;31.55
67881;SHT31;54680;52.486;-1.890;2023-01-23T11:21:09;19.49;31.50
67881;SHT31;54680;52.486;-1.890;2023-01-23T11:23:44;19.49;31.49
67881;SHT31;54680;52.486;-1.890;2023-01-23T11:26:09;19.52;31.45
67881;SHT31;54680;52.486;-1.890;2023-01-23T11:28:54;19.59;31.36
67881;SHT31;54680;52.486;-1.890;2023-01-23T11:31:20;19.54;31.52
67881;SHT31;54680;52.486;-1.890;2023-01-23T11:33:51;19.57;31.44
67881;SHT31;54680;52.486;-1.890;2023-01-23T11:36:25;19.54;31.54
67881;SHT31;54680;52.486;-1.890;2023-01-23T11:39:05;19.53;31.50
67881;SHT31;54680;52.486;-1.890;2023-01-23T11:41:40;19.57;31.48
67881;SHT31;54680;52.486;-1.890;2023-01-23T11:44:06;19.59;31.51
67881;SHT31;54680;52.486;-1.890;2023-01-23T11:46:41;19.61;31.42
67881;SHT31;54680;52.486;-1.890;2023-01-23T11:54:36;19.63;31.51
67881;SHT31;54680;52.486;-1.890;2023-01-23T12:00:19;19.64;31.48
67881;SHT31;54680;52.486;-1.890;2023-01-23T12:02:31;19.66;31.45
67881;SHT31;54680;52.486;-1.890;2023-01-23T12:05:06;19.70;31.37
67881;SHT31;54680;52.486;-1.890;2023-01-23T12:07:35;19.69;31.37
67881;SHT31;54680;52.486;-1.890;2023-01-23T12:10:19;19.67;31.46
67881;SHT31;54680;52.486;-1.890;2023-01-23T12:18:05;19.70;31.42
67881;SHT31;54680;52.486;-1.890;2023-01-23T12:20:32;19.73;31.49
67881;SHT31;54680;52.486;-1.890;2023-01-23T12:25:41;19.70;31.48
67881;SHT31;54680;52.486;-1.890;2023-01-23T12:28:29;19.70;31.54
67881;SHT31;54680;52.486;-1.890;2023-01-23T12:30:59;19.70;31.52
67881;SHT31;54680;52.486;-1.890;2023-01-23T12:36:16;19.73;31.55
67881;SHT31;54680;52.486;-1.890;2023-01-23T12:38:55;19.74;31.55
67881;SHT31;54680;52.486;-1.890;2023-01-23T12:41:35;19.77;31.51
67881;SHT31;54680;52.486;-1.890;2023-01-23T12:44:23;19.75;31.53
67881;SHT31;54680;52.486;-1.890;2023-01-23T12:46:51;19.77;31.52
67881;SHT31;54680;52.486;-1.890;2023-01-23T12:49:20;19.80;31.52
67881;SHT31;54680;52.486;-1.890;2023-01-23T12:51:51;19.81;31.53
67881;SHT31;54680;52.486;-1.890;2023-01-23T12:54:20;19.77;31.59
67881;SHT31;54680;52.486;-1.890;2023-01-23T12:56:48;19.83;31.59
67881;SHT31;54680;52.486;-1.890;2023-01-23T12:59:16;19.78;31.66
67881;SHT31;54680;52.486;-1.890;2023-01-23T13:01:50;19.83;31.64
67881;SHT31;54680;52.486;-1.890;2023-01-23T13:04:27;19.85;31.58
67881;SHT31;54680;52.486;-1.890;2023-01-23T13:07:02;19.85;31.67
67881;SHT31;54680;52.486;-1.890;2023-01-23T13:09:38;19.88;31.58
67881;SHT31;54680;52.486;-1.890;2023-01-23T13:14:45;19.90;31.61
67881;SHT31;54680;52.486;-1.890;2023-01-23T13:17:30;19.93;31.58
67881;SHT31;54680;52.486;-1.890;2023-01-23T13:22:51;20.07;31.64
67881;SHT31;54680;52.486;-1.890;2023-01-23T13:25:17;20.11;31.50
67881;SHT31;54680;52.486;-1.890;2023-01-23T13:35:50;20.24;31.46
67881;SHT31;54680;52.486;-1.890;2023-01-23T13:38:31;20.32;31.44
67881;SHT31;54680;52.486;-1.890;2023-01-23T13:43:50;20.44;31.30
67881;SHT31;54680;52.486;-1.890;2023-01-23T13:52:03;20.49;31.14
67881;SHT31;54680;52.486;-1.890;2023-01-23T13:54:51;20.51;31.12
67881;SHT31;54680;52.486;-1.890;2023-01-23T13:57:32;20.48;31.20
67881;SHT31;54680;52.486;-1.890;2023-01-23T13:59:57;20.51;31.12
67881;SHT31;54680;52.486;-1.890;2023-01-23T14:05:24;20.42;31.18
67881;SHT31;54680;52.486;-1.890;2023-01-23T14:07:58;20.57;31.10
67881;SHT31;54680;52.486;-1.890;2023-01-23T14:10:25;20.57;31.13
67881;SHT31;54680;52.486;-1.890;2023-01-23T14:12:59;20.63;31.19
67881;SHT31;54680;52.486;-1.890;2023-01-23T14:15:25;20.59;31.05
67881;SHT31;54680;52.486;-1.890;2023-01-23T14:18:02;20.69;31.06
67881;SHT31;54680;52.486;-1.890;2023-01-23T14:20:29;20.65;31.02
67881;SHT31;54680;52.486;-1.890;2023-01-23T14:22:56;20.68;30.99
67881;SHT31;54680;52.486;-1.890;2023-01-23T14:25:21;20.68;31.02
67881;SHT31;54680;52.486;-1.890;2023-01-23T14:27:46;20.71;31.02
67881;SHT31;54680;52.486;-1.890;2023-01-23T14:30:15;20.73;31.04
67881;SHT31;54680;52.486;-1.890;2023-01-23T14:32:41;20.76;31.01
67881;SHT31;54680;52.486;-1.890;2023-01-23T14:35:14;20.79;31.16
67881;SHT31;54680;52.486;-1.890;2023-01-23T14:37:40;20.85;31.15
67881;SHT31;54680;52.486;-1.890;2023-01-23T14:40:10;20.92;31.03
67881;SHT31;54680;52.486;-1.890;2023-01-23T14:42:37;21.00;31.18
67881;SHT31;54680;52.486;-1.890;2023-01-23T14:45:04;21.06;30.97
67881;SHT31;54680;52.486;-1.890;2023-01-23T14:47:31;21.17;31.12
67881;SHT31;54680;52.486;-1.890;2023-01-23T14:49:57;21.37;31.30
67881;SHT31;54680;52.486;-1.890;2023-01-23T14:52:24;21.64;30.95
